Suomigracht — PHBT — position and weather

sailwx.info

Track history (hours):
 
Tides and Currents Weather Stations Pressure Air Temp Water Temp Dewpoint Dewpoint Depression Visibility Wind Speed Wind Dir Waves Ship Positions

Suomigracht

Last reported at 2017-Sep-25 20:11 UTC. Time now 2017-Sep-26 03:58 UTC.
Position N 56°23' E 017°01'.

Length 173 m; beam 26 m.

Type: Cargo ship. MMSI: 246100000.

Date/timePositionNaut miles runAvg speedWind from/ knotsBaromVisibWave heightAir tempDewpointWater temp
2017-Sep-25 20:11N 56°23' E 017°01'316.3
2017-Sep-25 20:00N 56°20' E 016°59'916.3
2017-Sep-25 19:28N 56°12' E 016°53'716.1
2017-Sep-25 19:00N 56°05' E 016°48'816.0
2017-Sep-25 18:30N 56°00' E 016°36'815.9
2017-Sep-25 18:00N 55°57' E 016°24'816.0
2017-Sep-25 17:30N 55°53' E 016°11'815.7
2017-Sep-25 17:00N 55°49' E 015°59'815.7
2017-Sep-25 16:30N 55°45' E 015°47'815.7
2017-Sep-25 16:00N 55°41' E 015°34'815.9
2017-Sep-25 15:30N 55°38' E 015°22'1215.8
2017-Sep-25 14:45N 55°32' E 015°03'515.9
2017-Sep-25 14:25N 55°29' E 014°55'815.9
2017-Sep-25 13:54N 55°25' E 014°43'615.6
2017-Sep-25 13:30N 55°21' E 014°35'816.1
2017-Sep-25 13:00N 55°14' E 014°27'816.0
2017-Sep-25 12:30N 55°08' E 014°18'816.4
2017-Sep-25 12:00N 55°02' E 014°08'916.0
2017-Sep-25 11:28N 54°59' E 013°55'2716.1
2017-Sep-25 09:47N 54°50' E 013°10'415.8
2017-Sep-25 09:30N 54°49' E 013°03'2514.8
2017-Sep-25 07:47N 54°38' E 012°23'310.7
2017-Sep-25 07:30N 54°36' E 012°19'714.2
2017-Sep-25 07:01N 54°30' E 012°14'714.1
2017-Sep-25 06:31N 54°25' E 012°06'815.5
2017-Sep-25 05:58N 54°24' E 011°51'715.3
2017-Sep-25 05:31N 54°26' E 011°40'816.1
2017-Sep-25 05:01N 54°30' E 011°28'816.0
2017-Sep-25 04:31N 54°34' E 011°15'715.0
2017-Sep-25 04:01N 54°35' E 011°03'714.8
2017-Sep-25 03:31N 54°38' E 010°51'713.0
2017-Sep-25 03:01N 54°44' E 010°47'714.4
2017-Sep-25 02:31N 54°51' E 010°50'713.4
2017-Sep-25 02:00N 54°57' E 010°55'713.8
2017-Sep-25 01:30N 55°04' E 010°60'713.6
2017-Sep-25 01:00N 55°11' E 011°01'611.1
2017-Sep-25 00:30N 55°16' E 011°04'10513.7
2017-Sep-24 16:49N 56°59' E 011°43'516.5
2017-Sep-24 16:29N 57°04' E 011°39'816.2
2017-Sep-24 16:00N 57°11' E 011°34'816.1
2017-Sep-24 15:30N 57°19' E 011°29'816.0
2017-Sep-24 15:00N 57°27' E 011°24'815.8
2017-Sep-24 14:30N 57°32' E 011°14'816.0
2017-Sep-24 14:00N 57°38' E 011°03'816.1
2017-Sep-24 13:30N 57°43' E 010°52'815.8
2017-Sep-24 13:00N 57°47' E 010°39'816.1
2017-Sep-24 12:30N 57°47' E 010°25'  
Track history (hours):
 
Tides and Currents Weather Stations Pressure Air Temp Water Temp Dewpoint Dewpoint Depression Visibility Wind Speed Wind Dir Waves Ship Positions

Suomigracht

Last reported at 2017-Sep-25 20:11 UTC. Time now 2017-Sep-26 03:58 UTC.
Position N 56°23' E 017°01'.

Length 173 m; beam 26 m.

Type: Cargo ship. MMSI: 246100000.

Date/timePositionNaut miles runAvg speedWind from/ knotsBaromVisibWave heightAir tempDewpointWater temp
2017-Sep-25 20:11N 56°23' E 017°01'316.3
2017-Sep-25 20:00N 56°20' E 016°59'916.3
2017-Sep-25 19:28N 56°12' E 016°53'716.1
2017-Sep-25 19:00N 56°05' E 016°48'816.0
2017-Sep-25 18:30N 56°00' E 016°36'815.9
2017-Sep-25 18:00N 55°57' E 016°24'816.0
2017-Sep-25 17:30N 55°53' E 016°11'815.7
2017-Sep-25 17:00N 55°49' E 015°59'815.7
2017-Sep-25 16:30N 55°45' E 015°47'815.7
2017-Sep-25 16:00N 55°41' E 015°34'815.9
2017-Sep-25 15:30N 55°38' E 015°22'1215.8
2017-Sep-25 14:45N 55°32' E 015°03'515.9
2017-Sep-25 14:25N 55°29' E 014°55'815.9
2017-Sep-25 13:54N 55°25' E 014°43'615.6
2017-Sep-25 13:30N 55°21' E 014°35'816.1
2017-Sep-25 13:00N 55°14' E 014°27'816.0
2017-Sep-25 12:30N 55°08' E 014°18'816.4
2017-Sep-25 12:00N 55°02' E 014°08'916.0
2017-Sep-25 11:28N 54°59' E 013°55'2716.1
2017-Sep-25 09:47N 54°50' E 013°10'415.8
2017-Sep-25 09:30N 54°49' E 013°03'2514.8
2017-Sep-25 07:47N 54°38' E 012°23'310.7
2017-Sep-25 07:30N 54°36' E 012°19'714.2
2017-Sep-25 07:01N 54°30' E 012°14'714.1
2017-Sep-25 06:31N 54°25' E 012°06'815.5
2017-Sep-25 05:58N 54°24' E 011°51'715.3
2017-Sep-25 05:31N 54°26' E 011°40'816.1
2017-Sep-25 05:01N 54°30' E 011°28'816.0
2017-Sep-25 04:31N 54°34' E 011°15'715.0
2017-Sep-25 04:01N 54°35' E 011°03'714.8
2017-Sep-25 03:31N 54°38' E 010°51'713.0
2017-Sep-25 03:01N 54°44' E 010°47'714.4
2017-Sep-25 02:31N 54°51' E 010°50'713.4
2017-Sep-25 02:00N 54°57' E 010°55'713.8
2017-Sep-25 01:30N 55°04' E 010°60'713.6
2017-Sep-25 01:00N 55°11' E 011°01'611.1
2017-Sep-25 00:30N 55°16' E 011°04'10513.7
2017-Sep-24 16:49N 56°59' E 011°43'516.5
2017-Sep-24 16:29N 57°04' E 011°39'816.2
2017-Sep-24 16:00N 57°11' E 011°34'816.1
2017-Sep-24 15:30N 57°19' E 011°29'816.0
2017-Sep-24 15:00N 57°27' E 011°24'815.8
2017-Sep-24 14:30N 57°32' E 011°14'816.0
2017-Sep-24 14:00N 57°38' E 011°03'816.1
2017-Sep-24 13:30N 57°43' E 010°52'815.8
2017-Sep-24 13:00N 57°47' E 010°39'816.1
2017-Sep-24 12:30N 57°47' E 010°25'  

Dump ship's entire track history